Terminal Aerodrome Forecast
Issued by NWS Lake Charles, LA

Home | Current Version | Previous Version | Text Only | Print | Product List | Glossary On
Versions: 1 2 3 4 5 6 7 8 9 10 11 12 13 14 15 16 17 18 19 20
000
FTUS44 KLCH 011700
TAFBPT
TAF
KBPT 011720Z 0118/0218 16010KT P6SM VCTS SCT025CB BKN040
     FM012300 16007KT P6SM SCT050
     FM020600 16004KT 4SM BR BKN015
     FM021400 16007KT P6SM VCSH BKN025=

USA.gov is the U.S. government's official web portal to all federal, state and local government web resources and services.